Time;durP1;ratioP1;P1;durP2;ratioP2;P2;SDS_P1;SDS_P2;PMS_P1;PMS_P2;Temp;Humidity;BMP_temperature;BMP_pressure;BME280_temperature;BME280_humidity;BME280_pressure;Samples;Min_cycle;Max_cycle;Signal;HPM_P1;HPM_P2
2023/07/06 00:01:39;;;;;;;0.22;0.08;;;10.10;99.90;;;;;;5044928;28;20558;-72
2023/07/06 00:04:05;;;;;;;0.03;0.03;;;10.10;99.90;;;;;;5048183;28;20147;-72
2023/07/06 00:06:32;;;;;;;0.70;0.13;;;10.10;99.90;;;;;;5047404;28;20080;-72
2023/07/06 00:08:59;;;;;;;0.10;0.10;;;10.00;99.90;;;;;;5047884;28;20564;-72
2023/07/06 00:11:32;;;;;;;0.00;0.00;;;9.90;99.90;;;;;;5047736;28;20408;-72
2023/07/06 00:13:57;;;;;;;0.00;0.00;;;9.90;99.90;;;;;;5047308;28;20139;-71
2023/07/06 00:16:23;;;;;;;0.00;0.00;;;9.90;99.90;;;;;;5047861;28;20124;-73
2023/07/06 00:18:49;;;;;;;0.35;0.35;;;9.90;99.90;;;;;;5047350;28;20133;-72
2023/07/06 00:21:14;;;;;;;0.20;0.15;;;9.90;99.90;;;;;;5047578;28;20045;-72
2023/07/06 00:23:43;;;;;;;0.13;0.13;;;9.90;99.90;;;;;;5047655;28;20638;-72
2023/07/06 00:26:10;;;;;;;0.15;0.15;;;9.90;99.90;;;;;;5047045;28;20144;-72
2023/07/06 00:28:36;;;;;;;0.73;0.65;;;9.90;99.90;;;;;;5047073;28;20049;-72
2023/07/06 00:31:10;;;;;;;2.60;0.32;;;10.00;99.90;;;;;;5047780;28;20515;-72
2023/07/06 00:33:39;;;;;;;0.00;0.00;;;10.00;99.90;;;;;;5047372;28;20064;-72
2023/07/06 00:36:06;;;;;;;0.50;0.43;;;10.00;99.90;;;;;;5047017;28;20492;-72
2023/07/06 00:38:32;;;;;;;0.50;0.45;;;10.00;99.90;;;;;;5047177;28;20056;-72
2023/07/06 00:40:58;;;;;;;1.85;0.55;;;10.00;99.90;;;;;;5047478;28;20044;-72
2023/07/06 00:43:28;;;;;;;0.20;0.20;;;10.00;99.90;;;;;;5047584;28;20071;-72
2023/07/06 00:46:01;;;;;;;0.10;0.10;;;10.00;99.90;;;;;;5047308;28;20056;-72
2023/07/06 00:48:32;;;;;;;0.47;0.30;;;10.00;99.90;;;;;;5047674;28;20102;-72
2023/07/06 00:51:07;;;;;;;0.00;0.00;;;10.00;99.90;;;;;;5048660;28;20049;-72
2023/07/06 00:53:38;;;;;;;0.30;0.20;;;10.00;99.90;;;;;;5048692;28;20091;-72
2023/07/06 00:56:06;;;;;;;0.45;0.32;;;9.90;99.90;;;;;;5028331;28;20053;-72
2023/07/06 00:58:38;;;;;;;0.75;0.60;;;10.00;99.90;;;;;;5040617;28;20048;-72
2023/07/06 01:01:08;;;;;;;0.30;0.30;;;10.00;99.90;;;;;;5046930;28;20537;-72
2023/07/06 01:03:46;;;;;;;0.40;0.40;;;10.00;99.90;;;;;;5046967;28;20427;-71
2023/07/06 01:06:17;;;;;;;0.75;0.45;;;10.00;99.90;;;;;;5046820;28;20045;-72
2023/07/06 01:08:43;;;;;;;0.60;0.47;;;10.00;99.90;;;;;;5046615;28;20049;-72
2023/07/06 01:11:09;;;;;;;0.00;0.00;;;10.00;99.90;;;;;;5046570;28;20056;-72
2023/07/06 01:13:36;;;;;;;0.70;0.47;;;10.00;99.90;;;;;;5046539;28;20095;-71
2023/07/06 01:16:25;;;;;;;3.60;1.45;;;10.00;99.90;;;;;;5046709;28;20393;-72
2023/07/06 01:19:20;;;;;;;2.45;0.35;;;10.00;99.90;;;;;;5046115;28;20066;-72
2023/07/06 01:22:13;;;;;;;0.17;0.17;;;10.00;99.90;;;;;;5044228;28;20131;-72
2023/07/06 01:24:50;;;;;;;0.70;0.47;;;9.90;99.90;;;;;;5043762;28;20088;-72
2023/07/06 01:27:41;;;;;;;0.20;0.20;;;10.00;99.90;;;;;;5046136;28;20059;-72
2023/07/06 01:30:51;;;;;;;0.82;0.70;;;9.90;99.90;;;;;;5046095;28;20463;-71
2023/07/06 01:33:32;;;;;;;1.38;0.73;;;10.00;99.90;;;;;;5035788;28;20783;-72
2023/07/06 01:36:03;;;;;;;4.35;0.43;;;10.00;99.90;;;;;;5045790;28;20052;-71
2023/07/06 01:38:28;;;;;;;0.28;0.28;;;10.00;99.90;;;;;;5045899;28;20128;-72
2023/07/06 01:40:55;;;;;;;0.52;0.52;;;10.00;99.90;;;;;;5045513;28;20128;-72
2023/07/06 01:43:20;;;;;;;0.38;0.38;;;10.00;99.90;;;;;;5045733;28;20098;-72
2023/07/06 01:45:47;;;;;;;0.35;0.32;;;10.00;99.90;;;;;;5045343;28;20056;-70
2023/07/06 01:48:14;;;;;;;0.32;0.20;;;9.90;99.90;;;;;;5045309;28;20056;-72
2023/07/06 01:50:40;;;;;;;0.57;0.57;;;10.00;99.90;;;;;;5045412;28;20098;-72
2023/07/06 01:53:12;;;;;;;0.45;0.40;;;10.00;99.90;;;;;;5045277;28;20052;-72
2023/07/06 01:55:40;;;;;;;0.45;0.45;;;10.00;99.90;;;;;;5045266;28;20040;-72
2023/07/06 01:58:43;;;;;;;0.52;0.43;;;10.00;99.90;;;;;;5029625;28;20105;-72
2023/07/06 02:01:14;;;;;;;1.08;0.60;;;10.10;99.90;;;;;;5045734;28;20179;-72
2023/07/06 02:03:41;;;;;;;4.90;1.95;;;10.20;99.90;;;;;;5046009;28;20052;-72
2023/07/06 02:06:08;;;;;;;0.30;0.30;;;10.30;99.90;;;;;;5045246;28;20059;-72
2023/07/06 02:08:41;;;;;;;1.02;0.60;;;10.40;99.90;;;;;;5045171;28;20048;-72
2023/07/06 02:11:08;;;;;;;1.45;0.43;;;10.50;99.90;;;;;;5044870;28;20126;-72
2023/07/06 02:13:34;;;;;;;0.85;0.45;;;10.60;99.90;;;;;;5045396;28;20442;-72
2023/07/06 02:16:03;;;;;;;0.05;0.05;;;10.60;99.90;;;;;;5045004;28;20045;-72
2023/07/06 02:18:29;;;;;;;8.55;4.35;;;10.60;99.90;;;;;;5044884;28;20045;-72
2023/07/06 02:20:54;;;;;;;0.00;0.00;;;10.60;99.90;;;;;;5044666;28;20103;-72
2023/07/06 02:23:20;;;;;;;0.00;0.00;;;10.50;99.90;;;;;;5045292;28;20514;-72
2023/07/06 02:25:45;;;;;;;0.65;0.35;;;10.60;99.90;;;;;;5044115;28;20205;-72
2023/07/06 02:28:11;;;;;;;0.38;0.28;;;10.60;99.90;;;;;;5044661;28;20091;-72
2023/07/06 02:30:37;;;;;;;0.13;0.13;;;10.70;99.90;;;;;;5045139;28;20072;-72
2023/07/06 02:33:03;;;;;;;0.20;0.20;;;10.70;99.90;;;;;;5044666;28;20128;-72
2023/07/06 02:35:29;;;;;;;0.43;0.43;;;10.80;99.90;;;;;;5044245;28;20583;-71
2023/07/06 02:37:55;;;;;;;1.90;1.17;;;10.80;99.90;;;;;;5044326;28;20522;-72
2023/07/06 02:40:20;;;;;;;0.32;0.30;;;10.80;99.90;;;;;;5044505;28;20040;-72
2023/07/06 02:42:46;;;;;;;0.00;0.00;;;10.70;99.90;;;;;;5045058;28;20504;-72
2023/07/06 02:45:12;;;;;;;0.22;0.22;;;10.60;99.90;;;;;;5044522;28;20049;-72
2023/07/06 02:47:40;;;;;;;0.43;0.40;;;10.50;99.90;;;;;;5044422;28;20422;-72
2023/07/06 02:50:10;;;;;;;0.98;0.88;;;10.50;99.90;;;;;;5043817;28;20052;-72
2023/07/06 02:52:39;;;;;;;0.10;0.10;;;10.50;99.90;;;;;;5044932;28;20106;-72
2023/07/06 02:55:05;;;;;;;0.25;0.25;;;10.50;99.90;;;;;;5044754;28;20048;-72
2023/07/06 02:57:31;;;;;;;0.68;0.50;;;10.50;99.90;;;;;;5044524;28;20051;-72
2023/07/06 02:59:57;;;;;;;0.00;0.00;;;10.50;99.90;;;;;;5045023;28;20124;-72
2023/07/06 03:02:23;;;;;;;0.47;0.35;;;10.50;99.90;;;;;;5044719;28;20080;-72
2023/07/06 03:04:51;;;;;;;1.52;0.63;;;10.40;99.90;;;;;;5043933;28;20063;-72
2023/07/06 03:07:18;;;;;;;0.28;0.28;;;10.40;99.90;;;;;;5043808;28;20087;-72
2023/07/06 03:09:44;;;;;;;0.25;0.20;;;10.30;99.90;;;;;;5043948;28;20452;-72
2023/07/06 03:12:10;;;;;;;0.00;0.00;;;10.30;99.90;;;;;;5043869;28;20053;-73
2023/07/06 03:14:36;;;;;;;0.63;0.63;;;10.20;99.90;;;;;;5044071;28;20116;-72
2023/07/06 03:17:01;;;;;;;0.20;0.20;;;10.20;99.90;;;;;;5043997;28;20091;-72
2023/07/06 03:19:27;;;;;;;0.65;0.65;;;10.20;99.90;;;;;;5044425;28;20037;-72
2023/07/06 03:21:58;;;;;;;1.55;1.25;;;10.20;99.90;;;;;;5044108;28;20098;-72
2023/07/06 03:24:25;;;;;;;0.20;0.13;;;10.10;99.90;;;;;;5044423;28;20083;-72
2023/07/06 03:26:52;;;;;;;0.80;0.80;;;10.10;99.90;;;;;;5044601;28;20041;-72
2023/07/06 03:29:17;;;;;;;0.10;0.10;;;10.10;99.90;;;;;;5044110;28;20049;-72
2023/07/06 03:31:45;;;;;;;0.00;0.00;;;10.10;99.90;;;;;;5043933;28;20392;-72
2023/07/06 03:34:11;;;;;;;0.35;0.35;;;10.20;99.90;;;;;;5043808;28;20083;-72
2023/07/06 03:36:38;;;;;;;0.47;0.45;;;10.20;99.90;;;;;;5044241;28;20427;-72
2023/07/06 03:39:06;;;;;;;0.93;0.55;;;10.20;99.90;;;;;;5043420;28;20044;-72
2023/07/06 03:41:31;;;;;;;0.00;0.00;;;10.10;99.90;;;;;;5043722;28;20041;-72
2023/07/06 03:43:58;;;;;;;0.63;0.38;;;10.20;99.90;;;;;;5043736;28;20052;-72
2023/07/06 03:46:33;;;;;;;1.90;0.95;;;10.20;99.90;;;;;;5044172;28;20055;-72
2023/07/06 03:49:09;;;;;;;0.10;0.10;;;10.30;99.90;;;;;;5041964;28;20104;-71
2023/07/06 03:51:36;;;;;;;;;;;10.40;99.90;;;;;;5044550;28;20114;-72
2023/07/06 03:54:06;;;;;;;0.00;0.00;;;10.50;99.90;;;;;;5043516;28;19974;-72
2023/07/06 03:56:35;;;;;;;1.30;1.02;;;10.60;99.90;;;;;;5043687;28;20047;-72
2023/07/06 03:59:02;;;;;;;0.90;0.55;;;10.80;99.90;;;;;;5043918;28;20095;-72
2023/07/06 04:01:29;;;;;;;0.50;0.50;;;10.90;99.90;;;;;;5043811;28;20106;-72
2023/07/06 04:03:55;;;;;;;0.38;0.38;;;11.00;99.90;;;;;;5043103;28;20037;-72
2023/07/06 04:06:23;;;;;;;1.55;0.80;;;11.10;99.90;;;;;;5043588;28;20081;-72
2023/07/06 04:08:49;;;;;;;0.17;0.17;;;11.20;99.90;;;;;;5043227;28;20532;-72
2023/07/06 04:11:15;;;;;;;0.63;0.57;;;11.30;99.90;;;;;;5041498;28;20144;-72
2023/07/06 04:13:41;;;;;;;0.43;0.43;;;11.40;99.90;;;;;;5043619;28;20124;-72
2023/07/06 04:16:14;;;;;;;8.27;1.50;;;11.40;99.90;;;;;;5043515;28;20045;-72
2023/07/06 04:18:39;;;;;;;0.68;0.68;;;11.40;99.90;;;;;;5043344;28;20115;-72
2023/07/06 04:21:05;;;;;;;0.30;0.22;;;11.50;99.90;;;;;;5043349;28;20671;-72
2023/07/06 04:23:31;;;;;;;0.80;0.40;;;11.60;99.90;;;;;;5044100;28;20045;-72
2023/07/06 04:25:59;;;;;;;0.10;0.10;;;11.70;99.90;;;;;;5043319;28;20036;-72
2023/07/06 04:28:25;;;;;;;3.13;1.30;;;11.70;99.90;;;;;;5043253;28;20563;-72
2023/07/06 04:30:50;;;;;;;0.80;0.20;;;11.70;99.90;;;;;;5043386;28;20136;-72
2023/07/06 04:33:19;;;;;;;1.50;1.27;;;11.70;99.90;;;;;;5043724;28;20067;-71
2023/07/06 04:35:51;;;;;;;0.45;0.45;;;11.70;99.90;;;;;;5043761;28;20527;-72
2023/07/06 04:38:17;;;;;;;0.82;0.63;;;11.70;99.90;;;;;;5040035;28;20052;-72
2023/07/06 04:40:43;;;;;;;1.45;0.40;;;11.70;99.90;;;;;;5043345;28;20041;-73
2023/07/06 04:43:11;;;;;;;2.83;1.85;;;11.70;99.90;;;;;;5034490;28;20120;-73
2023/07/06 04:45:37;;;;;;;0.63;0.45;;;11.70;99.90;;;;;;5043116;28;20510;-72
2023/07/06 04:48:05;;;;;;;0.15;0.15;;;11.70;99.90;;;;;;5044227;28;20079;-72
2023/07/06 04:50:31;;;;;;;1.55;0.75;;;11.70;99.90;;;;;;5046439;28;20053;-72
2023/07/06 04:52:59;;;;;;;0.90;0.55;;;11.80;99.90;;;;;;5046373;28;20056;-72
2023/07/06 04:55:28;;;;;;;0.82;0.55;;;11.80;99.90;;;;;;5046958;28;20094;-72
2023/07/06 04:57:56;;;;;;;1.30;0.32;;;11.90;99.90;;;;;;5046566;28;20090;-72
2023/07/06 05:00:26;;;;;;;13.52;2.55;;;11.90;99.90;;;;;;5046796;28;20052;-72
2023/07/06 05:02:53;;;;;;;2.45;1.27;;;12.00;99.90;;;;;;5046904;28;20202;-72
2023/07/06 05:05:20;;;;;;;0.20;0.20;;;12.00;99.90;;;;;;5045139;28;20049;-72
2023/07/06 05:07:46;;;;;;;0.43;0.43;;;12.00;99.90;;;;;;5044097;28;20057;-72
2023/07/06 05:10:13;;;;;;;0.98;0.65;;;12.40;99.90;;;;;;5043958;28;20422;-72
2023/07/06 05:12:39;;;;;;;12.95;3.42;;;12.00;99.90;;;;;;5044208;28;20049;-72
2023/07/06 05:15:06;;;;;;;1.17;0.88;;;12.00;99.90;;;;;;5043914;28;20525;-73
2023/07/06 05:17:32;;;;;;;0.50;0.45;;;12.10;99.90;;;;;;5043988;28;20047;-72
2023/07/06 05:19:58;;;;;;;1.27;0.63;;;12.40;99.90;;;;;;5044022;28;20049;-72
2023/07/06 05:22:25;;;;;;;1.17;0.57;;;12.80;99.90;;;;;;5043762;28;20045;-73
2023/07/06 05:24:51;;;;;;;2.15;0.95;;;13.40;99.90;;;;;;5044154;28;20067;-73
2023/07/06 05:27:17;;;;;;;3.80;1.23;;;13.70;99.90;;;;;;5043606;28;20653;-73
2023/07/06 05:29:43;;;;;;;0.30;0.30;;;13.70;99.90;;;;;;5043546;28;20045;-73
2023/07/06 05:32:09;;;;;;;0.68;0.52;;;13.80;99.90;;;;;;5042356;28;20344;-73
2023/07/06 05:34:35;;;;;;;1.52;0.88;;;13.90;99.90;;;;;;5023858;28;20557;-73
2023/07/06 05:37:01;;;;;;;0.30;0.25;;;14.20;99.90;;;;;;5023974;28;20053;-73
2023/07/06 05:39:27;;;;;;;0.45;0.40;;;14.10;99.90;;;;;;5040227;28;20395;-74
2023/07/06 05:41:53;;;;;;;0.10;0.10;;;14.00;99.90;;;;;;5040067;28;20069;-74
2023/07/06 05:44:19;;;;;;;0.17;0.13;;;13.90;99.90;;;;;;5031964;28;20045;-72
2023/07/06 05:46:44;;;;;;;0.20;0.20;;;14.50;99.90;;;;;;5033709;28;20041;-71
2023/07/06 05:49:10;;;;;;;13.05;1.02;;;15.40;99.90;;;;;;5035343;28;20403;-72
2023/07/06 05:51:36;;;;;;;2.42;1.73;;;16.20;99.90;;;;;;5031408;28;20088;-71
2023/07/06 05:54:02;;;;;;;0.65;0.65;;;17.00;1.00;;;;;;5031720;28;20136;-72
2023/07/06 05:56:30;;;;;;;0.40;0.40;;;17.60;99.90;;;;;;5025104;28;20056;-73
2023/07/06 05:58:59;;;;;;;1.08;0.95;;;18.30;1.00;;;;;;5024663;28;20119;-73
2023/07/06 06:01:25;;;;;;;0.52;0.50;;;18.80;99.90;;;;;;5025935;28;20365;-73
2023/07/06 06:03:52;;;;;;;0.00;0.00;;;19.20;1.00;;;;;;5025161;28;20052;-73
2023/07/06 06:06:20;;;;;;;0.98;0.75;;;19.70;1.00;;;;;;5024151;28;20132;-73
2023/07/06 06:08:47;;;;;;;4.93;2.25;;;20.30;99.90;;;;;;5023698;28;20042;-73
2023/07/06 06:11:15;;;;;;;0.70;0.70;;;20.60;99.90;;;;;;5024301;28;20187;-73
2023/07/06 06:13:43;;;;;;;0.43;0.35;;;20.80;99.90;;;;;;5023579;28;20390;-73
2023/07/06 06:16:12;;;;;;;0.32;0.32;;;21.00;99.90;;;;;;5023672;28;20053;-73
2023/07/06 06:18:41;;;;;;;0.20;0.20;;;21.30;99.90;;;;;;5022533;28;20060;-73
2023/07/06 06:21:07;;;;;;;0.20;0.20;;;21.50;99.90;;;;;;5021418;28;20489;-73
2023/07/06 06:23:34;;;;;;;0.63;0.57;;;21.70;99.90;;;;;;5020841;28;20057;-72
2023/07/06 06:26:00;;;;;;;1.00;0.28;;;22.10;99.90;;;;;;5020793;28;20566;-73
2023/07/06 06:28:26;;;;;;;0.43;0.38;;;22.40;99.90;;;;;;5021511;28;20045;-73
2023/07/06 06:30:55;;;;;;;0.20;0.20;;;22.60;99.90;;;;;;5020484;28;20041;-72
2023/07/06 06:33:21;;;;;;;23.10;1.05;;;23.00;99.90;;;;;;5021013;28;20851;-73
2023/07/06 06:35:46;;;;;;;1.63;0.80;;;23.30;99.90;;;;;;5020769;28;20042;-73
2023/07/06 06:38:14;;;;;;;0.75;0.52;;;23.20;99.90;;;;;;5020724;28;20484;-73
2023/07/06 06:40:39;;;;;;;2.03;1.45;;;23.40;99.90;;;;;;5019666;28;20049;-72
2023/07/06 06:43:05;;;;;;;0.52;0.52;;;23.50;91.60;;;;;;5020723;28;20503;-73
2023/07/06 06:45:32;;;;;;;0.40;0.40;;;23.60;62.00;;;;;;5019237;28;20076;-73
2023/07/06 06:47:58;;;;;;;0.32;0.28;;;23.80;47.30;;;;;;5020564;28;20049;-73
2023/07/06 06:50:24;;;;;;;2.20;0.75;;;24.00;18.90;;;;;;5021195;28;20124;-73
2023/07/06 06:52:50;;;;;;;0.63;0.35;;;24.00;1.00;;;;;;5023830;28;20112;-73
2023/07/06 06:55:16;;;;;;;6.22;0.95;;;24.20;1.00;;;;;;5029586;28;20052;-73
2023/07/06 06:57:43;;;;;;;0.20;0.20;;;24.60;26.30;;;;;;5043457;28;20041;-73
2023/07/06 07:00:10;;;;;;;0.70;0.47;;;24.90;34.20;;;;;;5042278;28;20160;-73
2023/07/06 07:02:38;;;;;;;2.13;1.17;;;25.10;1.00;;;;;;5040318;28;20131;-73
2023/07/06 07:05:09;;;;;;;5.93;3.13;;;25.20;1.00;;;;;;5040420;28;20080;-73
2023/07/06 07:07:38;;;;;;;1.05;0.82;;;25.30;1.00;;;;;;5040163;28;20053;-73
2023/07/06 07:10:09;;;;;;;0.28;0.28;;;25.10;1.00;;;;;;5039280;28;20052;-73
2023/07/06 07:12:42;;;;;;;2.22;0.50;;;25.00;1.00;;;;;;5038966;28;20475;-73
2023/07/06 07:15:09;;;;;;;1.77;1.15;;;24.80;99.90;;;;;;5033904;28;20137;-73
2023/07/06 07:17:36;;;;;;;0.10;0.10;;;24.90;99.90;;;;;;5031252;28;20046;-73
2023/07/06 07:20:02;;;;;;;1.75;1.65;;;24.90;99.90;;;;;;5017694;28;20050;-73
2023/07/06 07:22:28;;;;;;;0.30;0.10;;;24.90;99.90;;;;;;5030161;28;20507;-73
2023/07/06 07:24:54;;;;;;;0.17;0.17;;;25.10;99.90;;;;;;5018342;28;20076;-73
2023/07/06 07:27:20;;;;;;;0.50;0.50;;;25.40;99.90;;;;;;5025203;28;20042;-73
2023/07/06 07:29:47;;;;;;;1.38;0.60;;;25.40;99.90;;;;;;5021233;28;20079;-73
2023/07/06 07:32:14;;;;;;;4.60;1.30;;;25.50;99.90;;;;;;5027304;28;20049;-73
2023/07/06 07:34:40;;;;;;;1.00;0.82;;;25.50;99.90;;;;;;5019639;28;20473;-72
2023/07/06 07:37:10;;;;;;;0.00;0.00;;;25.50;99.90;;;;;;5022482;28;20049;-72
2023/07/06 07:39:36;;;;;;;0.35;0.32;;;25.80;99.90;;;;;;5022582;28;20474;-72
2023/07/06 07:42:03;;;;;;;9.13;0.70;;;26.10;99.90;;;;;;5024347;28;20084;-72
2023/07/06 07:44:29;;;;;;;0.25;0.25;;;26.30;99.90;;;;;;5024136;28;20045;-72
2023/07/06 07:46:55;;;;;;;3.30;1.15;;;26.20;99.90;;;;;;5024031;28;20056;-72
2023/07/06 07:49:21;;;;;;;0.05;0.05;;;26.50;99.90;;;;;;5021642;28;20574;-71
2023/07/06 07:51:46;;;;;;;0.38;0.38;;;26.40;99.90;;;;;;5021579;28;20049;-72
2023/07/06 07:54:12;;;;;;;0.50;0.40;;;26.40;99.90;;;;;;5021584;28;20045;-72
2023/07/06 07:56:38;;;;;;;1.52;0.95;;;26.70;99.90;;;;;;5021864;28;20111;-72
2023/07/06 07:59:04;;;;;;;4.80;0.70;;;27.20;99.90;;;;;;5021227;28;20064;-72
2023/07/06 08:01:30;;;;;;;1.23;0.52;;;27.50;88.30;;;;;;5021830;28;20120;-72
2023/07/06 08:03:57;;;;;;;0.28;0.25;;;27.40;20.30;;;;;;5021404;28;20128;-72
2023/07/06 08:06:23;;;;;;;0.47;0.43;;;27.70;1.30;;;;;;5021513;28;20049;-72
2023/07/06 08:08:48;;;;;;;3.10;1.02;;;27.50;1.00;;;;;;5021623;28;20041;-72
2023/07/06 08:11:20;;;;;;;0.13;0.13;;;27.40;1.00;;;;;;5021357;28;20076;-72
2023/07/06 08:13:50;;;;;;;0.75;0.38;;;27.40;1.00;;;;;;5022076;28;20053;-72
2023/07/06 08:16:16;;;;;;;0.00;0.00;;;27.40;1.00;;;;;;5021749;28;20425;-71
2023/07/06 08:18:43;;;;;;;2.17;0.90;;;27.30;99.90;;;;;;5021277;28;20061;-72
2023/07/06 08:21:10;;;;;;;3.10;0.63;;;27.40;99.90;;;;;;5021387;28;20041;-72
2023/07/06 08:23:40;;;;;;;0.00;0.00;;;26.70;99.90;;;;;;5024788;28;20049;-72
2023/07/06 08:26:08;;;;;;;0.35;0.32;;;26.20;99.90;;;;;;5025410;28;20106;-72
2023/07/06 08:28:34;;;;;;;0.22;0.20;;;26.10;99.90;;;;;;5025666;28;20049;-72
2023/07/06 08:31:03;;;;;;;1.92;0.63;;;26.50;99.90;;;;;;5025376;28;20056;-72
2023/07/06 08:33:35;;;;;;;1.38;0.40;;;27.20;99.90;;;;;;5025306;28;20046;-72
2023/07/06 08:36:03;;;;;;;0.45;0.20;;;28.00;99.90;;;;;;5025754;28;20049;-72
2023/07/06 08:38:31;;;;;;;0.20;0.20;;;27.60;99.90;;;;;;5025335;28;20499;-72
2023/07/06 08:40:57;;;;;;;1.70;0.55;;;26.60;99.90;;;;;;5025493;28;20427;-72
2023/07/06 08:43:26;;;;;;;0.00;0.00;;;26.20;99.90;;;;;;5025571;28;20042;-72
2023/07/06 08:45:58;;;;;;;0.00;0.00;;;26.50;99.90;;;;;;5024915;28;20120;-72
2023/07/06 08:48:26;;;;;;;0.30;0.30;;;26.90;99.90;;;;;;5024889;28;20322;-72
2023/07/06 08:50:59;;;;;;;0.05;0.05;;;27.10;99.90;;;;;;5025303;28;20049;-72
2023/07/06 08:53:29;;;;;;;1.45;0.30;;;27.00;99.90;;;;;;5025417;28;20049;-72
2023/07/06 08:55:57;;;;;;;0.15;0.15;;;27.50;99.90;;;;;;5040182;28;20478;-72
2023/07/06 08:58:29;;;;;;;0.40;0.40;;;28.30;99.90;;;;;;5024806;28;20068;-72
2023/07/06 09:01:10;;;;;;;0.43;0.32;;;28.10;99.90;;;;;;5024701;28;20175;-72
2023/07/06 09:03:42;;;;;;;0.00;0.00;;;28.30;99.90;;;;;;5024935;28;20053;-72
2023/07/06 09:06:12;;;;;;;5.57;0.60;;;28.70;99.90;;;;;;5039743;28;20543;-72
2023/07/06 09:08:41;;;;;;;0.52;0.45;;;28.80;60.40;;;;;;5024920;28;20041;-72
2023/07/06 09:11:08;;;;;;;0.32;0.13;;;29.10;51.90;;;;;;5024681;28;20626;-72
2023/07/06 09:13:47;;;;;;;0.00;0.00;;;29.20;1.00;;;;;;5024996;28;20080;-73
2023/07/06 09:16:18;;;;;;;0.10;0.10;;;28.90;1.00;;;;;;5025010;28;20076;-72
2023/07/06 09:18:44;;;;;;;0.00;0.00;;;28.60;1.00;;;;;;5025012;28;20056;-72
2023/07/06 09:21:09;;;;;;;0.22;0.22;;;28.70;1.00;;;;;;5025184;28;20041;-72
2023/07/06 09:23:35;;;;;;;0.25;0.22;;;28.80;1.00;;;;;;5024618;28;20401;-72
2023/07/06 09:26:07;;;;;;;0.13;0.00;;;28.00;1.00;;;;;;5024298;28;20092;-72
2023/07/06 09:28:33;;;;;;;0.25;0.20;;;26.70;1.00;;;;;;5024888;28;20436;-72
2023/07/06 09:31:09;;;;;;;0.05;0.05;;;25.70;1.00;;;;;;5024900;28;20052;-73
2023/07/06 09:33:41;;;;;;;0.00;0.00;;;24.90;1.00;;;;;;5024534;28;20453;-72
2023/07/06 09:36:16;;;;;;;0.70;0.38;;;25.40;1.00;;;;;;5024390;28;20045;-72
2023/07/06 09:38:45;;;;;;;0.30;0.30;;;26.50;1.00;;;;;;5024382;28;20145;-72
2023/07/06 09:41:27;;;;;;;0.63;0.35;;;27.30;1.00;;;;;;5024486;28;20045;-72
2023/07/06 09:44:03;;;;;;;0.38;0.10;;;27.60;1.00;;;;;;5024054;28;20099;-72
2023/07/06 09:46:32;;;;;;;;;;;27.30;1.00;;;;;;5024349;28;20046;-72
2023/07/06 09:48:59;;;;;;;0.25;0.22;;;26.60;1.00;;;;;;5023875;28;19925;-72
2023/07/06 09:51:28;;;;;;;0.75;0.35;;;25.70;1.00;;;;;;5024280;28;20046;-73
2023/07/06 09:54:02;;;;;;;4.07;0.43;;;25.00;1.00;;;;;;5023954;28;20053;-72
2023/07/06 09:56:29;;;;;;;14.98;1.40;;;24.50;1.00;;;;;;5024099;28;20049;-72
2023/07/06 09:59:00;;;;;;;3.72;0.32;;;24.00;1.00;;;;;;5023905;28;20131;-72
2023/07/06 10:01:25;;;;;;;0.13;0.10;;;23.60;1.00;;;;;;5023863;28;20124;-72
2023/07/06 10:04:05;;;;;;;0.08;0.00;;;23.40;1.00;;;;;;5024007;28;20493;-72
2023/07/06 10:07:05;;;;;;;0.10;0.10;;;23.60;1.00;;;;;;5023925;28;20483;-72
2023/07/06 10:09:40;;;;;;;1.65;1.10;;;23.90;1.00;;;;;;5023732;28;20052;-72
2023/07/06 10:12:38;;;;;;;0.10;0.10;;;24.00;1.00;;;;;;5023845;28;20523;-72
2023/07/06 10:15:14;;;;;;;0.00;0.00;;;23.50;1.00;;;;;;5024389;28;20121;-72
2023/07/06 10:17:46;;;;;;;0.32;0.22;;;23.40;1.00;;;;;;5024019;28;20095;-72
2023/07/06 10:20:23;;;;;;;16.98;0.85;;;23.20;1.00;;;;;;5023691;28;20041;-72
2023/07/06 10:23:24;;;;;;;0.20;0.20;;;23.20;1.00;;;;;;5023687;28;20053;-72
2023/07/06 10:26:09;;;;;;;1.92;0.20;;;23.40;1.00;;;;;;5024145;28;20045;-72
2023/07/06 10:28:48;;;;;;;0.00;0.00;;;23.40;1.00;;;;;;5023609;28;20099;-72
2023/07/06 10:31:18;;;;;;;0.00;0.00;;;23.90;1.00;;;;;;5023629;28;20175;-72
2023/07/06 10:34:02;;;;;;;0.05;0.05;;;23.80;1.00;;;;;;5023735;28;20102;-72
2023/07/06 10:36:32;;;;;;;0.00;0.00;;;23.60;1.00;;;;;;5023198;28;20351;-72
2023/07/06 10:39:10;;;;;;;0.00;0.00;;;23.00;1.00;;;;;;5023632;28;20049;-72
2023/07/06 10:41:42;;;;;;;0.00;0.00;;;23.10;1.00;;;;;;5023207;28;20088;-72
2023/07/06 10:44:46;;;;;;;0.30;0.20;;;23.40;1.00;;;;;;5023131;28;20041;-72
2023/07/06 10:47:38;;;;;;;0.90;0.57;;;24.20;1.00;;;;;;5011735;28;20402;-72
2023/07/06 10:50:22;;;;;;;0.28;0.22;;;24.50;1.00;;;;;;5023345;28;20053;-72
2023/07/06 10:53:15;;;;;;;0.00;0.00;;;24.50;1.00;;;;;;5023086;28;20068;-72
2023/07/06 10:55:41;;;;;;;0.10;0.10;;;24.60;1.00;;;;;;5023422;28;20054;-72
2023/07/06 10:58:24;;;;;;;0.00;0.00;;;25.10;1.00;;;;;;5021490;28;20041;-73
2023/07/06 11:00:52;;;;;;;0.38;0.32;;;25.20;1.00;;;;;;5022491;28;20049;-73
2023/07/06 11:03:23;;;;;;;0.55;0.20;;;24.80;1.00;;;;;;5022927;28;20278;-72
2023/07/06 11:06:29;;;;;;;0.00;0.00;;;24.10;99.90;;;;;;5022819;28;20407;-73
2023/07/06 11:09:11;;;;;;;0.95;0.38;;;24.20;99.90;;;;;;5000264;28;20469;-73
2023/07/06 11:11:38;;;;;;;0.60;0.25;;;24.60;99.90;;;;;;5022328;28;20053;-73
2023/07/06 11:14:23;;;;;;;0.00;0.00;;;25.10;1.00;;;;;;5024684;28;20053;-74
2023/07/06 11:17:02;;;;;;;0.10;0.10;;;25.60;1.00;;;;;;5025292;28;20070;-73
2023/07/06 11:19:34;;;;;;;1.15;0.13;;;25.70;1.00;;;;;;5024922;28;20100;-74
2023/07/06 11:22:07;;;;;;;0.00;0.00;;;25.50;99.90;;;;;;5025538;28;20420;-73
2023/07/06 11:24:48;;;;;;;0.00;0.00;;;25.30;99.90;;;;;;5025066;28;20068;-73
2023/07/06 11:27:29;;;;;;;0.00;0.00;;;25.40;99.90;;;;;;5024564;28;20546;-73
2023/07/06 11:30:03;;;;;;;0.10;0.10;;;25.60;99.90;;;;;;5025271;28;20148;-73
2023/07/06 11:32:48;;;;;;;0.00;0.00;;;25.90;1.00;;;;;;5024761;28;20053;-72
2023/07/06 11:35:24;;;;;;;0.20;0.10;;;26.40;1.00;;;;;;5024852;28;20059;-73
2023/07/06 11:38:12;;;;;;;0.35;0.28;;;26.50;1.00;;;;;;5024867;28;20045;-72
2023/07/06 11:41:00;;;;;;;0.00;0.00;;;27.00;99.90;;;;;;5024569;28;20057;-73
2023/07/06 11:43:35;;;;;;;0.13;0.13;;;26.60;99.90;;;;;;5024462;28;20053;-72
2023/07/06 11:46:13;;;;;;;0.00;0.00;;;26.40;99.90;;;;;;5039903;28;20063;-73
2023/07/06 11:49:09;;;;;;;0.17;0.10;;;25.90;99.90;;;;;;5024417;28;20049;-73
2023/07/06 11:51:37;;;;;;;0.00;0.00;;;25.30;99.90;;;;;;5021725;28;20072;-72
2023/07/06 11:54:05;;;;;;;0.00;0.00;;;25.00;99.90;;;;;;5023238;28;20171;-72
2023/07/06 11:56:35;;;;;;;0.00;0.00;;;24.60;99.90;;;;;;5023758;28;20128;-72
2023/07/06 11:59:15;;;;;;;0.00;0.00;;;24.30;99.90;;;;;;5023903;28;20076;-72
2023/07/06 12:01:57;;;;;;;0.20;0.13;;;24.00;99.90;;;;;;5024751;28;20049;-72
2023/07/06 12:04:26;;;;;;;0.10;0.10;;;23.70;99.90;;;;;;5023265;28;20053;-72
2023/07/06 12:06:53;;;;;;;0.00;0.00;;;23.60;99.90;;;;;;5022767;28;20064;-72
2023/07/06 12:09:22;;;;;;;0.00;0.00;;;23.60;99.90;;;;;;5022451;28;20102;-72
2023/07/06 12:12:03;;;;;;;0.00;0.00;;;23.60;99.90;;;;;;5021993;28;20058;-73
2023/07/06 12:14:30;;;;;;;0.05;0.05;;;23.90;99.90;;;;;;5020520;28;20520;-73
2023/07/06 12:16:57;;;;;;;0.00;0.00;;;24.10;99.90;;;;;;5020508;28;20407;-72
2023/07/06 12:19:23;;;;;;;0.00;0.00;;;24.50;99.90;;;;;;5020161;28;20716;-73
2023/07/06 12:21:52;;;;;;;0.13;0.10;;;25.20;99.90;;;;;;5019987;28;20045;-73
2023/07/06 12:24:20;;;;;;;0.00;0.00;;;26.50;99.90;;;;;;5020293;28;20440;-73
2023/07/06 12:26:52;;;;;;;1.38;0.22;;;28.10;1.00;;;;;;5020366;28;20557;-73
2023/07/06 12:29:23;;;;;;;0.90;0.38;;;29.20;99.90;;;;;;5021713;28;20055;-73
2023/07/06 12:31:50;;;;;;;0.00;0.00;;;29.90;99.90;;;;;;5022463;28;20041;-73
2023/07/06 12:34:19;;;;;;;5.05;0.47;;;29.70;99.90;;;;;;5021994;28;20042;-73
2023/07/06 12:36:49;;;;;;;0.00;0.00;;;30.50;99.90;;;;;;5022381;28;20042;-73
2023/07/06 12:39:18;;;;;;;0.22;0.17;;;31.30;99.90;;;;;;5021945;28;20144;-73
2023/07/06 12:41:44;;;;;;;0.20;0.20;;;31.50;99.90;;;;;;5021982;28;20063;-73
2023/07/06 12:44:17;;;;;;;0.10;0.10;;;30.90;99.90;;;;;;5022058;28;20045;-73
2023/07/06 12:46:54;;;;;;;0.20;0.15;;;30.30;99.90;;;;;;5022067;28;20111;-73
2023/07/06 12:49:22;;;;;;;0.25;0.20;;;28.80;99.90;;;;;;5021657;28;20404;-73
2023/07/06 12:51:54;;;;;;;0.00;0.00;;;27.60;99.90;;;;;;5021991;28;20103;-73
2023/07/06 12:54:23;;;;;;;0.10;0.10;;;26.80;99.90;;;;;;5021613;28;20045;-73
2023/07/06 12:57:15;;;;;;;0.03;0.03;;;26.70;99.90;;;;;;5022278;28;20061;-71
2023/07/06 12:59:41;;;;;;;0.10;0.10;;;27.80;99.90;;;;;;5021464;28;20060;-71
2023/07/06 13:02:19;;;;;;;0.00;0.00;;;28.10;99.90;;;;;;5021887;28;20145;-72
2023/07/06 13:04:47;;;;;;;0.00;0.00;;;29.20;99.90;;;;;;5021205;28;20045;-73
2023/07/06 13:07:16;;;;;;;0.00;0.00;;;30.10;99.90;;;;;;5021532;28;20057;-73